createdAt,value
2022-07-30T04:39:36.818Z,4.75
2022-07-30T04:42:27.816Z,4.10
2022-07-30T04:54:07.438Z,4.05
2022-07-30T04:56:55.877Z,4.10
2022-07-30T05:42:47.767Z,3.05
2022-07-30T05:48:23.784Z,3.25
2022-07-30T07:21:31.900Z,1.30
2022-07-30T07:24:19.907Z,1.23
2022-07-30T07:33:08.002Z,1.35
2022-07-30T07:35:55.554Z,1.42
2022-07-30T07:38:48.058Z,1.20
2022-07-30T07:41:49.012Z,0.90
2022-07-30T07:56:08.858Z,1.10
2022-07-30T08:07:37.117Z,1.13
2022-07-30T08:17:24.683Z,1.02
2022-07-30T08:20:33.639Z,0.68
2022-07-30T08:23:22.554Z,0.63
2022-07-30T08:26:10.460Z,1.23
2022-07-30T08:28:58.959Z,1.05
2022-07-30T08:31:46.509Z,1.00
2022-07-30T08:34:35.177Z,0.82
2022-07-30T08:37:24.019Z,0.88
2022-07-30T08:40:12.244Z,1.17
2022-07-30T08:43:12.286Z,0.68
2022-07-30T08:46:00.951Z,1.35
2022-07-30T08:49:06.481Z,0.60
2022-07-30T08:51:58.592Z,0.50
2022-07-30T08:55:01.287Z,1.02
2022-07-30T08:57:49.338Z,0.77
2022-07-30T09:00:37.270Z,0.80
2022-07-30T09:03:24.725Z,0.80
2022-07-30T09:06:12.473Z,0.50
2022-07-30T09:09:01.414Z,0.93
2022-07-30T09:11:48.977Z,0.50
2022-07-30T09:14:38.210Z,1.02
2022-07-30T09:17:29.896Z,0.98
2022-07-30T09:20:21.063Z,0.98
2022-07-30T09:23:08.627Z,0.60
2022-07-30T09:26:14.562Z,0.70
2022-07-30T09:29:18.493Z,0.70
2022-07-30T09:32:48.669Z,1.63
2022-07-30T09:36:02.274Z,0.90
2022-07-30T09:39:30.502Z,0.82
2022-07-30T09:42:37.235Z,0.70
2022-07-30T09:45:34.910Z,0.93
2022-07-30T09:48:24.144Z,0.68
2022-07-30T09:51:15.692Z,0.50
2022-07-30T09:54:03.925Z,0.75
2022-07-30T09:57:22.768Z,0.73
2022-07-30T10:00:23.828Z,0.60
2022-07-30T10:03:42.299Z,0.50
2022-07-30T10:07:05.514Z,0.60
2022-07-30T10:10:02.404Z,0.50
2022-07-30T10:13:00.778Z,0.50
2022-07-30T10:15:49.732Z,0.50
2022-07-30T10:18:37.888Z,0.60
2022-07-30T10:21:44.694Z,0.63
2022-07-30T10:24:50.856Z,0.32
2022-07-30T10:27:57.201Z,0.40
2022-07-30T10:30:51.414Z,0.85
2022-07-30T10:33:42.400Z,0.40
2022-07-30T10:36:35.448Z,1.00
2022-07-30T10:39:28.115Z,0.50
2022-07-30T10:42:22.174Z,0.60
2022-07-30T10:45:23.146Z,0.70
2022-07-30T10:48:10.851Z,0.73
2022-07-30T10:50:59.989Z,0.52
2022-07-30T10:53:48.793Z,0.43
2022-07-30T10:56:36.174Z,0.55
2022-07-30T10:59:27.223Z,0.40
2022-07-30T11:02:17.721Z,0.50
2022-07-30T11:05:18.569Z,0.83
2022-07-30T11:08:35.976Z,0.93
2022-07-30T11:11:59.470Z,0.40
2022-07-30T11:14:46.558Z,0.90
2022-07-30T11:17:55.529Z,0.32
2022-07-30T11:20:48.823Z,0.70
2022-07-30T11:23:37.774Z,0.95
2022-07-30T11:26:38.854Z,0.40
2022-07-30T11:29:50.967Z,0.50
2022-07-30T11:32:38.988Z,0.55
2022-07-30T11:35:34.403Z,1.00
2022-07-30T11:38:22.799Z,0.80
2022-07-30T11:41:10.603Z,0.65
2022-07-30T11:44:16.445Z,0.70
2022-07-30T11:47:03.981Z,0.60
2022-07-30T11:49:51.485Z,1.30
2022-07-30T11:52:38.966Z,0.70
2022-07-30T11:55:27.845Z,0.63
2022-07-30T11:58:29.535Z,1.95
2022-07-30T12:01:17.320Z,0.80
2022-07-30T12:04:07.550Z,0.95
2022-07-30T12:06:54.983Z,0.70
2022-07-30T12:09:43.798Z,0.85
2022-07-30T12:12:31.353Z,1.02
2022-07-30T12:15:29.338Z,0.70
2022-07-30T12:21:39.900Z,0.70
2022-07-30T12:24:31.197Z,0.57
2022-07-30T12:27:25.318Z,1.00
2022-07-30T12:30:17.703Z,0.45
2022-07-30T12:33:06.176Z,0.80
2022-07-30T12:35:58.019Z,0.70
2022-07-30T12:38:48.193Z,0.63
2022-07-30T12:41:45.483Z,0.60
2022-07-30T12:44:35.990Z,0.60
2022-07-30T12:50:17.173Z,0.43
2022-07-30T12:53:09.048Z,1.27
2022-07-30T12:56:10.589Z,0.88
2022-07-30T12:59:03.106Z,1.15
2022-07-30T13:01:52.553Z,0.60
2022-07-30T13:04:59.022Z,0.57
2022-07-30T13:08:10.249Z,0.68
2022-07-30T13:11:01.959Z,0.77
2022-07-30T13:13:50.506Z,0.77
2022-07-30T13:16:40.116Z,0.60
2022-07-30T13:19:31.012Z,0.73
2022-07-30T13:22:20.578Z,0.80
2022-07-30T13:25:08.394Z,0.80
2022-07-30T13:27:55.866Z,0.50
2022-07-30T13:30:43.431Z,0.63
2022-07-30T13:33:38.065Z,0.80
2022-07-30T13:36:25.885Z,0.63
2022-07-30T13:39:36.702Z,1.02
2022-07-30T13:42:25.923Z,0.70
2022-07-30T13:45:22.187Z,0.73
2022-07-30T13:48:10.128Z,0.60
2022-07-30T13:50:57.620Z,0.60
2022-07-30T13:53:45.142Z,0.40
2022-07-30T13:56:32.569Z,0.52
2022-07-30T13:59:20.118Z,0.50
2022-07-30T14:02:07.729Z,0.68
2022-07-30T14:04:55.210Z,0.60
2022-07-30T14:07:42.692Z,0.60
2022-07-30T14:10:30.139Z,0.57
2022-07-30T14:13:21.070Z,0.68
2022-07-30T14:16:22.977Z,0.60
2022-07-30T14:19:23.870Z,1.15
2022-07-30T14:22:11.979Z,0.50
2022-07-30T14:25:12.212Z,0.50
2022-07-30T14:28:00.241Z,0.57
2022-07-30T14:30:47.593Z,0.57
2022-07-30T14:33:35.107Z,0.40
2022-07-30T14:36:22.666Z,0.73
2022-07-30T14:39:10.191Z,0.35
2022-07-30T14:41:57.884Z,0.22
2022-07-30T14:44:45.506Z,0.63
2022-07-30T14:47:33.231Z,0.88
2022-07-30T14:50:20.767Z,0.52
2022-07-30T14:53:08.154Z,1.50
2022-07-30T14:55:55.595Z,1.38
2022-07-30T14:58:43.021Z,0.88
2022-07-30T15:01:30.705Z,0.57
2022-07-30T15:04:18.231Z,0.50
2022-07-30T15:07:08.978Z,0.75
2022-07-30T15:09:56.674Z,1.63
2022-07-30T15:12:44.189Z,0.60
2022-07-30T15:15:37.468Z,0.30
2022-07-30T15:18:25.794Z,0.60
2022-07-30T15:21:13.227Z,1.55
2022-07-30T15:24:00.701Z,0.70
2022-07-30T15:26:48.758Z,0.50
2022-07-30T15:29:36.206Z,0.50
2022-07-30T15:38:01.472Z,0.90
2022-07-30T15:57:37.963Z,0.50
2022-07-30T16:11:36.965Z,2.22
2022-07-30T16:14:24.525Z,1.52
2022-07-30T16:17:14.243Z,2.25
2022-07-30T16:28:26.434Z,2.95
2022-07-30T17:17:30.562Z,2.05
2022-07-30T17:20:18.091Z,2.45
2022-07-30T17:40:27.577Z,1.83
2022-07-30T17:51:31.082Z,1.77
2022-07-30T18:11:13.303Z,0.98
2022-07-30T18:22:55.930Z,1.80
2022-07-30T19:13:44.232Z,4.15
